createdAt,value
2019-01-13T00:02:22.539Z,83.97
2019-01-13T00:04:52.032Z,83.78
2019-01-13T00:07:21.566Z,83.46
2019-01-13T00:09:51.146Z,82.71
2019-01-13T00:12:20.572Z,83.08
2019-01-13T00:14:50.151Z,83.11
2019-01-13T00:17:19.612Z,82.79
2019-01-13T00:19:49.126Z,83.40
2019-01-13T00:22:18.616Z,83.45
2019-01-13T00:24:53.044Z,83.77
2019-01-13T00:27:25.247Z,83.95
2019-01-13T00:29:54.756Z,84.02
2019-01-13T00:32:26.972Z,83.96
2019-01-13T00:35:05.241Z,84.01
2019-01-13T00:37:37.479Z,84.18
2019-01-13T00:40:16.030Z,84.31
2019-01-13T00:42:45.567Z,84.56
2019-01-13T00:45:22.743Z,84.50
2019-01-13T00:47:55.007Z,84.49
2019-01-13T00:50:24.475Z,84.63
2019-01-13T00:52:53.951Z,84.55
2019-01-13T00:55:24.471Z,84.85
2019-01-13T00:57:53.940Z,84.87
2019-01-13T01:00:26.696Z,84.92
2019-01-13T01:02:58.944Z,85.03
2019-01-13T01:05:28.534Z,85.33
2019-01-13T01:07:58.034Z,85.21
2019-01-13T01:10:28.836Z,84.99
2019-01-13T01:12:58.290Z,85.29
2019-01-13T01:15:27.822Z,85.29
2019-01-13T01:17:57.286Z,85.39
2019-01-13T01:20:26.810Z,85.39
2019-01-13T01:22:57.325Z,85.40
2019-01-13T01:25:27.834Z,84.99
2019-01-13T01:28:00.128Z,84.95
2019-01-13T01:30:33.414Z,84.87
2019-01-13T01:33:00.883Z,84.84
2019-01-13T01:35:31.576Z,84.80
2019-01-13T01:38:01.062Z,84.49
2019-01-13T01:40:31.792Z,84.48
2019-01-13T01:43:01.287Z,84.68
2019-01-13T01:45:31.986Z,84.27
2019-01-13T01:48:01.441Z,84.70
2019-01-13T01:50:30.968Z,84.87
2019-01-13T01:53:01.983Z,85.07
2019-01-13T01:55:32.360Z,84.94
2019-01-13T01:58:01.855Z,85.09
2019-01-13T02:00:31.332Z,85.33
2019-01-13T02:03:06.606Z,85.58
2019-01-13T02:05:36.149Z,85.25
2019-01-13T02:08:05.712Z,85.29
2019-01-13T02:10:36.403Z,85.22
2019-01-13T02:13:06.880Z,84.80
2019-01-13T02:15:36.445Z,84.55
2019-01-13T02:18:08.908Z,84.52
2019-01-13T02:20:38.450Z,84.47
2019-01-13T02:23:08.008Z,84.46
2019-01-13T02:25:38.697Z,84.49
2019-01-13T02:28:10.923Z,84.55
2019-01-13T02:30:48.842Z,84.49
2019-01-13T02:33:14.332Z,84.45
2019-01-13T02:35:43.855Z,84.31
2019-01-13T02:38:13.341Z,84.07
2019-01-13T02:40:44.358Z,84.02
2019-01-13T02:43:14.024Z,84.03
2019-01-13T02:45:44.878Z,83.91
2019-01-13T02:48:14.343Z,84.10
2019-01-13T02:50:43.928Z,84.32
2019-01-13T02:53:13.508Z,84.27
2019-01-13T02:55:44.160Z,84.45
2019-01-13T02:58:13.705Z,84.23
2019-01-13T03:00:43.178Z,84.06
2019-01-13T03:03:13.547Z,83.93
2019-01-13T03:05:46.174Z,83.82
2019-01-13T03:08:17.123Z,83.64
2019-01-13T03:10:49.977Z,83.49
2019-01-13T03:13:19.775Z,83.66
2019-01-13T03:15:49.352Z,83.24
2019-01-13T03:18:19.123Z,83.46
2019-01-13T03:20:49.731Z,83.68
2019-01-13T03:23:19.529Z,83.59
2019-01-13T03:25:51.828Z,83.76
2019-01-13T03:28:21.313Z,83.81
2019-01-13T03:30:50.814Z,84.21
2019-01-13T03:33:20.382Z,84.16
2019-01-13T03:35:49.896Z,84.00
2019-01-13T03:38:19.401Z,84.16
2019-01-13T03:40:51.649Z,84.15
2019-01-13T03:43:21.373Z,84.42
2019-01-13T03:45:53.711Z,84.32
2019-01-13T03:48:23.228Z,84.74
2019-01-13T03:50:52.716Z,84.95
2019-01-13T03:53:22.286Z,85.13
2019-01-13T03:55:53.155Z,85.27
2019-01-13T03:58:25.591Z,85.09
2019-01-13T04:00:57.833Z,85.63
2019-01-13T04:03:27.310Z,86.09
2019-01-13T04:05:56.797Z,86.07
2019-01-13T04:08:26.322Z,86.34
2019-01-13T04:10:58.755Z,86.32
2019-01-13T04:13:29.647Z,86.69
2019-01-13T04:15:59.158Z,86.91
2019-01-13T04:18:28.677Z,86.92
2019-01-13T04:20:58.265Z,86.91
2019-01-13T04:23:29.559Z,86.94
2019-01-13T04:25:59.070Z,86.52
2019-01-13T04:28:28.570Z,86.49
2019-01-13T04:30:58.076Z,86.31
2019-01-13T04:33:27.602Z,86.35
2019-01-13T04:35:57.078Z,86.25
2019-01-13T04:38:27.900Z,86.23
2019-01-13T04:40:57.460Z,86.39
2019-01-13T04:43:28.834Z,86.54
2019-01-13T04:45:58.331Z,86.41
2019-01-13T04:48:29.512Z,86.53
2019-01-13T04:50:59.013Z,86.42
2019-01-13T04:53:29.875Z,86.51
2019-01-13T04:55:59.459Z,86.38
2019-01-13T04:58:28.931Z,86.50
2019-01-13T05:00:58.406Z,86.33
2019-01-13T05:03:30.561Z,86.14
2019-01-13T05:06:08.037Z,85.77
2019-01-13T05:08:37.575Z,85.82
2019-01-13T05:11:07.146Z,85.83
2019-01-13T05:13:36.617Z,85.49
2019-01-13T05:16:07.224Z,85.65
2019-01-13T05:18:36.740Z,85.65
2019-01-13T05:21:06.235Z,85.65
2019-01-13T05:23:35.711Z,85.59
2019-01-13T05:26:05.196Z,85.83
2019-01-13T05:28:34.693Z,86.05
2019-01-13T05:31:05.107Z,86.09
2019-01-13T05:33:34.633Z,86.19
2019-01-13T05:36:05.059Z,86.31
2019-01-13T05:38:34.575Z,86.37
2019-01-13T05:41:05.417Z,86.42
2019-01-13T05:43:34.893Z,86.69
2019-01-13T05:46:05.638Z,86.64
2019-01-13T05:48:35.127Z,86.66
2019-01-13T05:51:05.966Z,87.01
2019-01-13T05:53:35.543Z,86.95
2019-01-13T05:56:05.085Z,86.86
2019-01-13T05:58:34.574Z,87.09
2019-01-13T06:01:04.173Z,87.22
2019-01-13T06:03:33.642Z,87.19
2019-01-13T06:06:03.133Z,87.26
2019-01-13T06:08:32.612Z,87.23
2019-01-13T06:11:02.129Z,87.29
2019-01-13T06:13:31.619Z,87.40
2019-01-13T06:16:01.102Z,87.60
2019-01-13T06:18:30.683Z,87.42
2019-01-13T06:21:00.160Z,87.27
2019-01-13T06:23:29.653Z,86.99
2019-01-13T06:26:00.629Z,87.12
2019-01-13T06:28:30.137Z,87.27
2019-01-13T06:30:59.644Z,87.25
2019-01-13T06:33:29.182Z,87.12
2019-01-13T06:35:58.684Z,86.97
2019-01-13T06:38:28.145Z,86.91
2019-01-13T06:40:57.695Z,86.91
2019-01-13T06:43:27.219Z,86.87
2019-01-13T06:45:56.743Z,86.83
2019-01-13T06:48:26.222Z,86.92
2019-01-13T06:50:56.084Z,86.97
2019-01-13T06:53:25.554Z,87.05
2019-01-13T06:55:55.068Z,86.96
2019-01-13T06:58:24.646Z,86.85
2019-01-13T07:00:54.230Z,87.11
2019-01-13T07:03:23.735Z,87.20
2019-01-13T07:05:53.247Z,87.07
2019-01-13T07:08:22.762Z,87.16
2019-01-13T07:10:52.329Z,87.29
2019-01-13T07:13:21.865Z,87.29
2019-01-13T07:15:52.855Z,87.35
2019-01-13T07:18:22.385Z,87.53
2019-01-13T07:20:51.939Z,87.71
2019-01-13T07:23:21.506Z,87.86
2019-01-13T07:25:51.000Z,87.94
2019-01-13T07:28:20.579Z,87.95
2019-01-13T07:30:50.708Z,88.14
2019-01-13T07:33:20.231Z,88.20
2019-01-13T07:35:49.715Z,88.33
2019-01-13T07:38:19.221Z,88.31
2019-01-13T07:40:48.760Z,88.34
2019-01-13T07:43:18.231Z,88.30
2019-01-13T07:45:49.434Z,88.37
2019-01-13T07:48:18.899Z,88.31
2019-01-13T07:50:48.420Z,88.21
2019-01-13T07:53:18.209Z,88.10
2019-01-13T07:55:47.703Z,88.33
2019-01-13T07:58:17.257Z,88.31
2019-01-13T08:00:48.443Z,88.26
2019-01-13T08:03:17.943Z,88.02
2019-01-13T08:05:48.397Z,88.06
2019-01-13T08:08:17.937Z,88.12
2019-01-13T08:10:47.423Z,88.01
2019-01-13T08:13:16.896Z,88.07
2019-01-13T08:15:48.351Z,88.08
2019-01-13T08:18:17.877Z,88.08
2019-01-13T08:20:47.393Z,88.02
2019-01-13T08:23:16.893Z,88.10
2019-01-13T08:25:46.987Z,88.25
2019-01-13T08:28:19.269Z,88.39
2019-01-13T08:30:51.955Z,88.36
2019-01-13T08:33:21.441Z,88.27
2019-01-13T08:35:50.953Z,88.32
2019-01-13T08:38:20.417Z,88.39
2019-01-13T08:40:49.891Z,88.32
2019-01-13T08:43:19.419Z,88.29
2019-01-13T08:45:50.438Z,88.09
2019-01-13T08:48:20.088Z,88.13
2019-01-13T08:50:49.619Z,88.23
2019-01-13T08:53:21.990Z,88.37
2019-01-13T08:55:51.511Z,88.27
2019-01-13T08:58:20.934Z,88.34
2019-01-13T09:00:52.173Z,88.36
2019-01-13T09:03:21.654Z,88.51
2019-01-13T09:05:51.149Z,88.66
2019-01-13T09:08:20.624Z,88.75
2019-01-13T09:10:50.223Z,88.78
2019-01-13T09:13:22.674Z,88.73
2019-01-13T09:15:53.691Z,88.63
2019-01-13T09:18:23.170Z,88.82
2019-01-13T09:20:53.092Z,88.79
2019-01-13T09:23:22.553Z,88.79
2019-01-13T09:25:52.036Z,88.85
2019-01-13T09:28:21.533Z,88.96
2019-01-13T09:30:51.014Z,88.85
2019-01-13T09:33:20.550Z,88.82
2019-01-13T09:35:50.155Z,88.60
2019-01-13T09:38:19.799Z,88.66
2019-01-13T09:40:49.260Z,88.54
2019-01-13T09:43:18.838Z,88.39
2019-01-13T09:45:48.316Z,88.48
2019-01-13T09:48:22.277Z,88.46
2019-01-13T09:50:51.867Z,88.30
2019-01-13T09:53:21.354Z,88.30
2019-01-13T09:55:51.004Z,88.51
2019-01-13T09:58:22.860Z,88.43
2019-01-13T10:00:52.613Z,88.61
2019-01-13T10:03:22.253Z,88.63
2019-01-13T10:05:51.678Z,88.51
2019-01-13T10:08:21.307Z,88.46
2019-01-13T10:10:50.727Z,88.52
2019-01-13T10:13:20.117Z,88.41
2019-01-13T10:15:49.516Z,88.33
2019-01-13T10:18:19.420Z,88.30
2019-01-13T10:20:48.821Z,88.24
2019-01-13T10:23:18.305Z,88.25
2019-01-13T10:25:47.951Z,88.12
2019-01-13T10:28:17.456Z,88.12
2019-01-13T10:30:47.352Z,88.16
2019-01-13T10:33:16.751Z,88.23
2019-01-13T10:35:46.154Z,88.39
2019-01-13T10:38:15.670Z,88.37
2019-01-13T10:40:45.594Z,88.40
2019-01-13T10:43:15.105Z,88.37
2019-01-13T10:45:44.668Z,88.41
2019-01-13T10:48:14.103Z,88.42
2019-01-13T10:50:43.568Z,88.21
2019-01-13T10:53:13.011Z,88.24
2019-01-13T10:55:42.504Z,88.43
2019-01-13T10:58:12.040Z,88.48
2019-01-13T11:00:41.479Z,88.49
2019-01-13T11:03:10.905Z,88.35
2019-01-13T11:05:40.367Z,88.23
2019-01-13T11:08:11.667Z,88.06
2019-01-13T11:10:40.933Z,88.08
2019-01-13T11:13:19.202Z,88.32
2019-01-13T11:15:48.815Z,88.19
2019-01-13T11:18:18.440Z,87.97
2019-01-13T11:20:47.926Z,87.95
2019-01-13T11:23:17.345Z,88.20
2019-01-13T11:25:46.750Z,88.05
2019-01-13T11:28:16.267Z,87.66
2019-01-13T11:30:45.776Z,87.54
2019-01-13T11:33:18.235Z,87.76
2019-01-13T11:35:47.687Z,87.79
2019-01-13T11:38:17.247Z,87.49
2019-01-13T11:40:46.775Z,87.47
2019-01-13T11:43:16.240Z,87.17
2019-01-13T11:45:45.761Z,87.03
2019-01-13T11:48:15.228Z,87.00
2019-01-13T11:50:44.803Z,87.09
2019-01-13T11:53:15.881Z,86.28
2019-01-13T11:55:45.423Z,86.29
2019-01-13T11:58:15.806Z,85.56
2019-01-13T12:00:45.666Z,85.60
2019-01-13T12:03:17.079Z,85.33
2019-01-13T12:05:46.332Z,84.98
2019-01-13T12:08:15.811Z,84.91
2019-01-13T12:10:45.369Z,84.53
2019-01-13T12:13:14.838Z,84.78
2019-01-13T12:15:45.370Z,85.07
2019-01-13T12:18:14.864Z,85.03
2019-01-13T12:20:44.361Z,85.37
2019-01-13T12:23:13.874Z,85.25
2019-01-13T12:25:43.510Z,85.35
2019-01-13T12:28:13.009Z,85.33
2019-01-13T12:30:42.501Z,84.91
2019-01-13T12:33:11.991Z,84.08
2019-01-13T12:35:41.497Z,84.21
2019-01-13T12:38:10.940Z,84.12
2019-01-13T12:40:40.413Z,84.23
2019-01-13T12:43:09.930Z,84.02
2019-01-13T12:45:40.413Z,83.90
2019-01-13T12:48:09.936Z,83.92
2019-01-13T12:50:40.439Z,83.58
2019-01-13T12:53:10.950Z,83.47
2019-01-13T12:55:40.590Z,82.84
2019-01-13T12:58:10.095Z,83.02
2019-01-13T13:00:39.686Z,83.09
2019-01-13T13:03:09.114Z,83.07
2019-01-13T13:05:38.621Z,82.63
2019-01-13T13:08:08.090Z,82.57
2019-01-13T13:10:39.444Z,82.75
2019-01-13T13:13:08.939Z,82.70
2019-01-13T13:15:38.476Z,83.01
2019-01-13T13:18:07.948Z,82.85
2019-01-13T13:20:37.463Z,82.67
2019-01-13T13:23:06.974Z,83.11
2019-01-13T13:25:36.462Z,83.21
2019-01-13T13:28:05.976Z,83.07
2019-01-13T13:30:35.448Z,83.30
2019-01-13T13:33:04.976Z,83.28
2019-01-13T13:35:39.689Z,83.54
2019-01-13T13:38:05.719Z,83.40
2019-01-13T13:40:35.261Z,83.33
2019-01-13T13:43:04.754Z,83.55
2019-01-13T13:45:34.230Z,83.34
2019-01-13T13:48:03.837Z,83.38
2019-01-13T13:50:33.295Z,82.95
2019-01-13T13:53:02.766Z,82.65
2019-01-13T13:55:32.242Z,82.67
2019-01-13T13:58:01.725Z,82.83
2019-01-13T14:00:32.101Z,82.64
2019-01-13T14:03:01.594Z,82.62
2019-01-13T14:05:31.150Z,82.85
2019-01-13T14:08:00.654Z,83.01
2019-01-13T14:10:35.689Z,82.73
2019-01-13T14:13:05.560Z,82.70
2019-01-13T14:15:35.013Z,82.46
2019-01-13T14:18:04.539Z,82.12
2019-01-13T14:20:34.060Z,81.75
2019-01-13T14:23:03.535Z,81.78
2019-01-13T14:25:32.994Z,81.36
2019-01-13T14:28:02.527Z,80.69
2019-01-13T14:30:31.980Z,80.57
2019-01-13T14:33:01.488Z,81.17
2019-01-13T14:35:30.935Z,82.08
2019-01-13T14:38:01.466Z,82.53
2019-01-13T14:40:30.932Z,81.32
2019-01-13T14:43:06.419Z,80.46
2019-01-13T14:45:35.853Z,80.02
2019-01-13T14:48:05.397Z,78.89
2019-01-13T14:50:35.266Z,78.60
2019-01-13T14:53:04.748Z,78.26
2019-01-13T14:55:34.249Z,78.05
2019-01-13T14:58:03.779Z,78.28
2019-01-13T15:00:33.292Z,79.21
2019-01-13T15:03:02.768Z,79.37
2019-01-13T15:05:32.286Z,80.43
2019-01-13T15:08:01.805Z,80.56
2019-01-13T15:10:31.324Z,80.03
2019-01-13T15:13:00.807Z,79.51
2019-01-13T15:15:30.223Z,77.93
2019-01-13T15:17:59.684Z,77.92
2019-01-13T15:20:29.157Z,77.60
2019-01-13T15:22:58.718Z,77.36
2019-01-13T15:25:28.946Z,77.70
2019-01-13T15:27:58.428Z,77.69
2019-01-13T15:30:29.892Z,76.60
2019-01-13T15:32:59.368Z,77.37
2019-01-13T15:35:28.900Z,77.08
2019-01-13T15:37:58.396Z,77.04
2019-01-13T15:40:27.922Z,77.10
2019-01-13T15:42:57.406Z,76.96
2019-01-13T15:45:26.841Z,77.31
2019-01-13T15:47:56.322Z,77.85
2019-01-13T15:50:27.447Z,79.31
2019-01-13T15:52:57.003Z,80.62
2019-01-13T15:55:26.499Z,80.62
2019-01-13T15:57:56.002Z,80.61
2019-01-13T16:00:31.021Z,80.48
2019-01-13T16:03:00.627Z,80.13
2019-01-13T16:05:30.126Z,78.93
2019-01-13T16:07:59.600Z,79.02
2019-01-13T16:10:29.078Z,79.37
2019-01-13T16:12:58.593Z,79.41
2019-01-13T16:15:34.209Z,79.64
2019-01-13T16:17:59.283Z,79.59
2019-01-13T16:20:34.341Z,78.76
2019-01-13T16:23:03.820Z,79.61
2019-01-13T16:25:33.307Z,79.69
2019-01-13T16:28:02.807Z,79.25
2019-01-13T16:30:32.794Z,78.61
2019-01-13T16:33:02.288Z,78.38
2019-01-13T16:35:31.734Z,78.62
2019-01-13T16:38:01.238Z,78.25
2019-01-13T16:40:30.713Z,78.20
2019-01-13T16:43:00.190Z,78.59
2019-01-13T16:45:29.668Z,77.72
2019-01-13T16:47:59.184Z,77.76
2019-01-13T16:50:28.681Z,77.63
2019-01-13T16:52:58.153Z,77.49
2019-01-13T16:55:27.630Z,77.67
2019-01-13T16:57:57.089Z,77.71
2019-01-13T17:00:28.228Z,78.20
2019-01-13T17:02:57.757Z,77.74
2019-01-13T17:05:28.217Z,77.74
2019-01-13T17:07:57.902Z,76.86
2019-01-13T17:10:27.405Z,77.79
2019-01-13T17:12:56.893Z,77.74
2019-01-13T17:15:29.024Z,77.72
2019-01-13T17:17:58.519Z,77.64
2019-01-13T17:20:28.003Z,77.72
2019-01-13T17:22:58.177Z,77.15
2019-01-13T17:25:28.107Z,77.54
2019-01-13T17:27:57.649Z,77.21
2019-01-13T17:30:29.890Z,77.41
2019-01-13T17:32:59.329Z,77.38
2019-01-13T17:35:28.874Z,76.82
2019-01-13T17:37:58.338Z,77.08
2019-01-13T17:40:27.891Z,77.42
2019-01-13T17:42:57.454Z,77.72
2019-01-13T17:45:29.679Z,77.71
2019-01-13T17:47:59.251Z,77.38
2019-01-13T17:50:28.903Z,78.02
2019-01-13T17:52:58.469Z,77.85
2019-01-13T17:55:28.609Z,77.23
2019-01-13T17:57:58.085Z,77.69
2019-01-13T18:00:39.737Z,78.27
2019-01-13T18:03:12.676Z,79.03
2019-01-13T18:05:42.153Z,79.25
2019-01-13T18:08:11.611Z,78.95
2019-01-13T18:10:41.106Z,80.37
2019-01-13T18:13:10.559Z,81.09
2019-01-13T18:15:40.062Z,81.19
2019-01-13T18:18:09.595Z,81.13
2019-01-13T18:20:39.083Z,81.61
2019-01-13T18:23:08.567Z,81.39
2019-01-13T18:25:38.007Z,80.35
2019-01-13T18:28:07.492Z,79.97
2019-01-13T18:30:36.978Z,80.27
2019-01-13T18:33:06.477Z,80.19
2019-01-13T18:35:36.067Z,80.03
2019-01-13T18:38:05.566Z,79.85
2019-01-13T18:40:35.240Z,79.66
2019-01-13T18:43:04.755Z,79.87
2019-01-13T18:45:34.264Z,79.80
2019-01-13T18:48:03.780Z,79.69
2019-01-13T18:50:33.245Z,79.18
2019-01-13T18:53:13.774Z,78.94
2019-01-13T18:55:43.263Z,79.60
2019-01-13T18:58:17.579Z,81.23
2019-01-13T19:00:49.605Z,81.72
2019-01-13T19:03:20.183Z,82.30
2019-01-13T19:05:49.681Z,83.28
2019-01-13T19:08:20.402Z,82.99
2019-01-13T19:10:54.688Z,82.02
2019-01-13T19:13:31.203Z,81.80
2019-01-13T19:16:00.626Z,79.51
2019-01-13T19:18:30.052Z,78.58
2019-01-13T19:20:59.614Z,76.70
2019-01-13T19:23:30.305Z,77.88
2019-01-13T19:25:59.720Z,77.39
2019-01-13T19:28:29.144Z,78.08
2019-01-13T19:30:58.935Z,76.72
2019-01-13T19:33:28.328Z,76.22
2019-01-13T19:35:58.033Z,75.42
2019-01-13T19:38:27.476Z,75.37
2019-01-13T19:40:56.989Z,73.93
2019-01-13T19:43:26.458Z,74.76
2019-01-13T19:45:55.947Z,74.28
2019-01-13T19:48:25.566Z,71.95
2019-01-13T19:50:55.060Z,71.24
2019-01-13T19:53:24.959Z,72.71
2019-01-13T19:55:54.628Z,71.26
2019-01-13T19:58:24.294Z,70.78
2019-01-13T20:00:53.754Z,69.65
2019-01-13T20:03:23.300Z,68.87
2019-01-13T20:05:52.909Z,69.08
2019-01-13T20:08:22.395Z,69.28
2019-01-13T20:10:51.924Z,68.62
2019-01-13T20:13:21.538Z,68.62
2019-01-13T20:15:51.065Z,67.86
2019-01-13T20:18:20.536Z,67.88
2019-01-13T20:20:49.999Z,68.57
2019-01-13T20:23:19.506Z,67.98
2019-01-13T20:25:49.029Z,68.32
2019-01-13T20:28:18.590Z,68.18
2019-01-13T20:30:49.075Z,67.63
2019-01-13T20:33:18.619Z,67.10
2019-01-13T20:35:48.594Z,67.52
2019-01-13T20:38:18.546Z,68.52
2019-01-13T20:40:48.826Z,68.16
2019-01-13T20:43:18.707Z,68.17
2019-01-13T20:45:48.318Z,68.67
2019-01-13T20:48:17.812Z,68.49
2019-01-13T20:50:47.320Z,67.51
2019-01-13T20:53:16.812Z,68.13
2019-01-13T20:55:46.317Z,68.39
2019-01-13T20:58:15.832Z,67.64
2019-01-13T21:00:45.403Z,67.49
2019-01-13T21:03:16.312Z,67.71
2019-01-13T21:05:45.812Z,67.47
2019-01-13T21:08:32.635Z,67.96
2019-01-13T21:11:05.418Z,66.46
2019-01-13T21:13:36.887Z,67.72
2019-01-13T21:16:06.448Z,67.19
2019-01-13T21:18:37.312Z,68.19
2019-01-13T21:21:06.877Z,68.11
2019-01-13T21:23:36.425Z,67.95
2019-01-13T21:26:05.909Z,67.13
2019-01-13T21:28:35.641Z,67.49
2019-01-13T21:31:05.078Z,67.05
2019-01-13T21:33:35.808Z,67.52
2019-01-13T21:36:05.774Z,68.55
2019-01-13T21:38:35.302Z,67.88
2019-01-13T21:41:04.846Z,67.46
2019-01-13T21:43:34.352Z,67.54
2019-01-13T21:46:03.883Z,68.13
2019-01-13T21:48:33.525Z,68.26
2019-01-13T21:51:03.034Z,67.81
2019-01-13T21:53:32.528Z,67.82
2019-01-13T21:56:02.382Z,67.60
2019-01-13T21:58:32.786Z,67.50
2019-01-13T22:01:02.262Z,67.80
2019-01-13T22:03:31.691Z,68.47
2019-01-13T22:06:01.346Z,68.71
2019-01-13T22:08:30.894Z,68.00
2019-01-13T22:11:00.409Z,67.75
2019-01-13T22:13:29.917Z,68.30
2019-01-13T22:15:59.453Z,68.09
2019-01-13T22:18:29.030Z,68.54
2019-01-13T22:20:58.565Z,68.03
2019-01-13T22:23:28.135Z,68.67
2019-01-13T22:25:58.822Z,67.11
2019-01-13T22:28:28.339Z,67.73
2019-01-13T22:30:57.898Z,67.66
2019-01-13T22:33:27.678Z,68.42
2019-01-13T22:35:57.230Z,68.47
2019-01-13T22:38:26.727Z,68.57
2019-01-13T22:40:56.431Z,67.73
2019-01-13T22:43:26.010Z,67.96
2019-01-13T22:45:55.597Z,68.09
2019-01-13T22:48:25.236Z,68.27
2019-01-13T22:50:56.341Z,67.36
2019-01-13T22:53:26.164Z,67.86
2019-01-13T22:55:55.729Z,67.70
2019-01-13T22:58:25.320Z,67.63
2019-01-13T23:01:07.997Z,66.92
2019-01-13T23:03:37.675Z,67.57
2019-01-13T23:06:07.297Z,67.21
2019-01-13T23:08:36.816Z,66.79
2019-01-13T23:11:06.395Z,67.46
2019-01-13T23:13:35.990Z,67.59
2019-01-13T23:16:05.621Z,67.54
2019-01-13T23:18:35.133Z,66.96
2019-01-13T23:21:04.955Z,67.59
2019-01-13T23:23:34.415Z,67.68
2019-01-13T23:26:04.183Z,67.64
2019-01-13T23:28:33.704Z,68.25
2019-01-13T23:31:03.268Z,68.18
2019-01-13T23:33:32.809Z,66.96
2019-01-13T23:36:03.058Z,67.46
2019-01-13T23:38:32.804Z,67.32
2019-01-13T23:41:02.346Z,68.12
2019-01-13T23:43:31.994Z,67.92
2019-01-13T23:46:01.837Z,67.78
2019-01-13T23:48:31.574Z,67.23
2019-01-13T23:51:01.127Z,67.62
2019-01-13T23:53:30.698Z,67.95
2019-01-13T23:56:00.243Z,66.69
2019-01-13T23:58:29.756Z,66.58
